sensor_id;sensor_type;location;lat;lon;timestamp;P1;durP1;ratioP1;P2;durP2;ratioP2
16969;SDS011;8601;48.718;8.992;2022-10-22T00:00:40;1.90;;;1.13;;
16969;SDS011;8601;48.718;8.992;2022-10-22T00:03:07;5.17;;;1.30;;
16969;SDS011;8601;48.718;8.992;2022-10-22T00:05:34;1.00;;;0.90;;
16969;SDS011;8601;48.718;8.992;2022-10-22T00:08:01;1.40;;;1.27;;
16969;SDS011;8601;48.718;8.992;2022-10-22T00:10:28;1.80;;;0.80;;
16969;SDS011;8601;48.718;8.992;2022-10-22T00:12:56;1.10;;;1.00;;
16969;SDS011;8601;48.718;8.992;2022-10-22T00:15:23;3.10;;;1.00;;
16969;SDS011;8601;48.718;8.992;2022-10-22T00:17:50;0.90;;;0.90;;
16969;SDS011;8601;48.718;8.992;2022-10-22T00:20:18;1.77;;;1.00;;
16969;SDS011;8601;48.718;8.992;2022-10-22T00:22:45;0.77;;;0.70;;
16969;SDS011;8601;48.718;8.992;2022-10-22T00:25:11;1.67;;;0.90;;
16969;SDS011;8601;48.718;8.992;2022-10-22T00:27:38;1.80;;;1.00;;
16969;SDS011;8601;48.718;8.992;2022-10-22T00:30:07;2.40;;;1.20;;
16969;SDS011;8601;48.718;8.992;2022-10-22T00:32:35;3.23;;;1.60;;
16969;SDS011;8601;48.718;8.992;2022-10-22T00:35:03;1.03;;;1.03;;
16969;SDS011;8601;48.718;8.992;2022-10-22T00:37:30;1.57;;;0.90;;
16969;SDS011;8601;48.718;8.992;2022-10-22T00:39:57;2.30;;;0.90;;
16969;SDS011;8601;48.718;8.992;2022-10-22T00:42:25;2.87;;;0.70;;
16969;SDS011;8601;48.718;8.992;2022-10-22T00:47:49;2.07;;;1.10;;
16969;SDS011;8601;48.718;8.992;2022-10-22T00:50:19;1.43;;;1.00;;
16969;SDS011;8601;48.718;8.992;2022-10-22T00:52:49;1.27;;;1.03;;
16969;SDS011;8601;48.718;8.992;2022-10-22T00:55:17;2.80;;;1.10;;
16969;SDS011;8601;48.718;8.992;2022-10-22T00:57:45;1.33;;;1.10;;
16969;SDS011;8601;48.718;8.992;2022-10-22T01:00:13;1.57;;;1.00;;
16969;SDS011;8601;48.718;8.992;2022-10-22T01:02:43;1.67;;;1.10;;
16969;SDS011;8601;48.718;8.992;2022-10-22T01:05:10;3.40;;;1.37;;
16969;SDS011;8601;48.718;8.992;2022-10-22T01:07:39;2.70;;;1.17;;
16969;SDS011;8601;48.718;8.992;2022-10-22T01:10:10;3.60;;;1.20;;
16969;SDS011;8601;48.718;8.992;2022-10-22T01:13:00;2.10;;;1.10;;
16969;SDS011;8601;48.718;8.992;2022-10-22T01:15:36;1.10;;;1.00;;
16969;SDS011;8601;48.718;8.992;2022-10-22T01:18:12;2.40;;;1.67;;
16969;SDS011;8601;48.718;8.992;2022-10-22T01:20:48;2.10;;;1.13;;
16969;SDS011;8601;48.718;8.992;2022-10-22T01:23:29;2.13;;;1.20;;
16969;SDS011;8601;48.718;8.992;2022-10-22T01:26:12;2.27;;;1.00;;
16969;SDS011;8601;48.718;8.992;2022-10-22T01:28:54;2.47;;;1.20;;
16969;SDS011;8601;48.718;8.992;2022-10-22T01:31:26;2.30;;;1.20;;
16969;SDS011;8601;48.718;8.992;2022-10-22T01:33:57;1.13;;;0.83;;
16969;SDS011;8601;48.718;8.992;2022-10-22T01:36:26;1.10;;;1.00;;
16969;SDS011;8601;48.718;8.992;2022-10-22T01:38:54;1.37;;;0.83;;
16969;SDS011;8601;48.718;8.992;2022-10-22T01:41:23;1.63;;;1.20;;
16969;SDS011;8601;48.718;8.992;2022-10-22T01:43:53;1.47;;;0.90;;
16969;SDS011;8601;48.718;8.992;2022-10-22T01:46:21;1.17;;;0.90;;
16969;SDS011;8601;48.718;8.992;2022-10-22T01:48:52;1.63;;;1.07;;
16969;SDS011;8601;48.718;8.992;2022-10-22T01:51:37;2.03;;;0.97;;
16969;SDS011;8601;48.718;8.992;2022-10-22T01:54:16;1.30;;;0.87;;
16969;SDS011;8601;48.718;8.992;2022-10-22T01:56:53;1.40;;;1.10;;
16969;SDS011;8601;48.718;8.992;2022-10-22T01:59:31;1.67;;;1.17;;
16969;SDS011;8601;48.718;8.992;2022-10-22T02:02:05;3.60;;;1.00;;
16969;SDS011;8601;48.718;8.992;2022-10-22T02:04:39;3.00;;;1.00;;
16969;SDS011;8601;48.718;8.992;2022-10-22T02:07:11;1.20;;;0.90;;
16969;SDS011;8601;48.718;8.992;2022-10-22T02:09:41;1.50;;;1.20;;
16969;SDS011;8601;48.718;8.992;2022-10-22T02:12:10;1.03;;;1.03;;
16969;SDS011;8601;48.718;8.992;2022-10-22T02:14:40;1.07;;;1.00;;
16969;SDS011;8601;48.718;8.992;2022-10-22T02:17:10;1.17;;;1.07;;
16969;SDS011;8601;48.718;8.992;2022-10-22T02:19:42;1.00;;;0.90;;
16969;SDS011;8601;48.718;8.992;2022-10-22T02:22:15;2.30;;;1.10;;
16969;SDS011;8601;48.718;8.992;2022-10-22T02:24:43;1.80;;;1.00;;
16969;SDS011;8601;48.718;8.992;2022-10-22T02:27:11;2.67;;;1.20;;
16969;SDS011;8601;48.718;8.992;2022-10-22T02:29:48;1.03;;;1.00;;
16969;SDS011;8601;48.718;8.992;2022-10-22T02:32:22;1.50;;;1.17;;
16969;SDS011;8601;48.718;8.992;2022-10-22T02:34:51;4.23;;;1.43;;
16969;SDS011;8601;48.718;8.992;2022-10-22T02:37:21;1.47;;;1.37;;
16969;SDS011;8601;48.718;8.992;2022-10-22T02:39:49;2.20;;;1.40;;
16969;SDS011;8601;48.718;8.992;2022-10-22T02:42:18;0.97;;;0.97;;
16969;SDS011;8601;48.718;8.992;2022-10-22T02:44:45;1.60;;;1.20;;
16969;SDS011;8601;48.718;8.992;2022-10-22T02:47:13;1.20;;;1.10;;
16969;SDS011;8601;48.718;8.992;2022-10-22T02:49:41;1.90;;;1.00;;
16969;SDS011;8601;48.718;8.992;2022-10-22T02:52:08;1.17;;;1.00;;
16969;SDS011;8601;48.718;8.992;2022-10-22T02:54:34;6.57;;;1.10;;
16969;SDS011;8601;48.718;8.992;2022-10-22T02:57:02;1.43;;;1.33;;
16969;SDS011;8601;48.718;8.992;2022-10-22T02:59:29;1.90;;;1.20;;
16969;SDS011;8601;48.718;8.992;2022-10-22T03:01:55;1.90;;;1.10;;
16969;SDS011;8601;48.718;8.992;2022-10-22T03:04:24;1.90;;;1.40;;
16969;SDS011;8601;48.718;8.992;2022-10-22T03:06:51;2.47;;;1.53;;
16969;SDS011;8601;48.718;8.992;2022-10-22T03:09:18;2.03;;;1.03;;
16969;SDS011;8601;48.718;8.992;2022-10-22T03:11:45;1.37;;;1.03;;
16969;SDS011;8601;48.718;8.992;2022-10-22T03:14:12;1.53;;;1.00;;
16969;SDS011;8601;48.718;8.992;2022-10-22T03:16:39;1.20;;;1.10;;
16969;SDS011;8601;48.718;8.992;2022-10-22T03:19:06;1.00;;;0.90;;
16969;SDS011;8601;48.718;8.992;2022-10-22T03:21:34;1.37;;;1.00;;
16969;SDS011;8601;48.718;8.992;2022-10-22T03:24:04;1.03;;;0.77;;
16969;SDS011;8601;48.718;8.992;2022-10-22T03:26:35;1.17;;;1.07;;
16969;SDS011;8601;48.718;8.992;2022-10-22T03:29:04;0.77;;;0.73;;
16969;SDS011;8601;48.718;8.992;2022-10-22T03:31:31;1.57;;;0.80;;
16969;SDS011;8601;48.718;8.992;2022-10-22T03:33:58;0.97;;;0.90;;
16969;SDS011;8601;48.718;8.992;2022-10-22T03:36:25;1.50;;;1.40;;
16969;SDS011;8601;48.718;8.992;2022-10-22T03:38:53;1.17;;;0.83;;
16969;SDS011;8601;48.718;8.992;2022-10-22T03:41:20;1.60;;;1.00;;
16969;SDS011;8601;48.718;8.992;2022-10-22T03:43:48;2.20;;;1.00;;
16969;SDS011;8601;48.718;8.992;2022-10-22T03:46:17;2.10;;;0.90;;
16969;SDS011;8601;48.718;8.992;2022-10-22T03:48:44;2.80;;;1.20;;
16969;SDS011;8601;48.718;8.992;2022-10-22T03:51:11;1.57;;;1.00;;
16969;SDS011;8601;48.718;8.992;2022-10-22T03:53:38;3.20;;;1.10;;
16969;SDS011;8601;48.718;8.992;2022-10-22T03:56:08;2.07;;;1.07;;
16969;SDS011;8601;48.718;8.992;2022-10-22T03:58:35;1.40;;;1.20;;
16969;SDS011;8601;48.718;8.992;2022-10-22T04:01:05;1.23;;;1.13;;
16969;SDS011;8601;48.718;8.992;2022-10-22T04:03:34;1.27;;;1.10;;
16969;SDS011;8601;48.718;8.992;2022-10-22T04:06:01;1.37;;;1.27;;
16969;SDS011;8601;48.718;8.992;2022-10-22T04:08:29;1.13;;;1.00;;
16969;SDS011;8601;48.718;8.992;2022-10-22T04:10:56;1.50;;;1.10;;
16969;SDS011;8601;48.718;8.992;2022-10-22T04:13:24;2.43;;;1.07;;
16969;SDS011;8601;48.718;8.992;2022-10-22T04:15:52;1.93;;;1.30;;
16969;SDS011;8601;48.718;8.992;2022-10-22T04:18:19;3.17;;;1.30;;
16969;SDS011;8601;48.718;8.992;2022-10-22T04:20:50;1.60;;;1.30;;
16969;SDS011;8601;48.718;8.992;2022-10-22T04:23:17;2.00;;;1.33;;
16969;SDS011;8601;48.718;8.992;2022-10-22T04:25:44;3.23;;;1.40;;
16969;SDS011;8601;48.718;8.992;2022-10-22T04:28:11;1.43;;;1.17;;
16969;SDS011;8601;48.718;8.992;2022-10-22T04:30:40;1.77;;;1.20;;
16969;SDS011;8601;48.718;8.992;2022-10-22T04:33:07;1.10;;;1.00;;
16969;SDS011;8601;48.718;8.992;2022-10-22T04:35:36;1.47;;;1.30;;
16969;SDS011;8601;48.718;8.992;2022-10-22T04:38:03;1.27;;;1.17;;
16969;SDS011;8601;48.718;8.992;2022-10-22T04:40:31;1.63;;;1.00;;
16969;SDS011;8601;48.718;8.992;2022-10-22T04:42:57;2.27;;;1.20;;
16969;SDS011;8601;48.718;8.992;2022-10-22T04:45:24;1.53;;;1.23;;
16969;SDS011;8601;48.718;8.992;2022-10-22T04:47:53;1.63;;;1.20;;
16969;SDS011;8601;48.718;8.992;2022-10-22T04:50:20;1.67;;;1.37;;
16969;SDS011;8601;48.718;8.992;2022-10-22T04:52:46;1.87;;;1.40;;
16969;SDS011;8601;48.718;8.992;2022-10-22T04:55:14;1.70;;;1.23;;
16969;SDS011;8601;48.718;8.992;2022-10-22T04:57:42;1.30;;;1.20;;
16969;SDS011;8601;48.718;8.992;2022-10-22T05:00:09;1.40;;;1.10;;
16969;SDS011;8601;48.718;8.992;2022-10-22T05:02:36;2.53;;;1.67;;
16969;SDS011;8601;48.718;8.992;2022-10-22T05:05:05;1.13;;;1.00;;
16969;SDS011;8601;48.718;8.992;2022-10-22T05:07:32;1.37;;;1.27;;
16969;SDS011;8601;48.718;8.992;2022-10-22T05:09:59;2.90;;;1.20;;
16969;SDS011;8601;48.718;8.992;2022-10-22T05:12:26;2.70;;;1.17;;
16969;SDS011;8601;48.718;8.992;2022-10-22T05:14:54;1.67;;;1.43;;
16969;SDS011;8601;48.718;8.992;2022-10-22T05:17:21;1.37;;;1.00;;
16969;SDS011;8601;48.718;8.992;2022-10-22T05:19:48;1.63;;;1.00;;
16969;SDS011;8601;48.718;8.992;2022-10-22T05:22:16;1.70;;;1.10;;
16969;SDS011;8601;48.718;8.992;2022-10-22T05:24:43;2.57;;;1.10;;
16969;SDS011;8601;48.718;8.992;2022-10-22T05:27:10;1.67;;;1.03;;
16969;SDS011;8601;48.718;8.992;2022-10-22T05:29:37;1.67;;;1.10;;
16969;SDS011;8601;48.718;8.992;2022-10-22T05:32:04;2.13;;;1.20;;
16969;SDS011;8601;48.718;8.992;2022-10-22T05:34:31;1.90;;;1.03;;
16969;SDS011;8601;48.718;8.992;2022-10-22T05:37:00;1.30;;;1.20;;
16969;SDS011;8601;48.718;8.992;2022-10-22T05:39:28;2.10;;;1.20;;
16969;SDS011;8601;48.718;8.992;2022-10-22T05:41:55;3.10;;;1.30;;
16969;SDS011;8601;48.718;8.992;2022-10-22T05:44:22;1.10;;;1.10;;
16969;SDS011;8601;48.718;8.992;2022-10-22T05:46:49;1.33;;;1.23;;
16969;SDS011;8601;48.718;8.992;2022-10-22T05:49:16;2.23;;;1.40;;
16969;SDS011;8601;48.718;8.992;2022-10-22T05:51:44;3.23;;;1.67;;
16969;SDS011;8601;48.718;8.992;2022-10-22T05:54:14;2.13;;;1.40;;
16969;SDS011;8601;48.718;8.992;2022-10-22T05:56:45;2.80;;;1.27;;
16969;SDS011;8601;48.718;8.992;2022-10-22T05:59:12;1.67;;;1.00;;
16969;SDS011;8601;48.718;8.992;2022-10-22T06:01:39;2.30;;;1.10;;
16969;SDS011;8601;48.718;8.992;2022-10-22T06:04:07;1.30;;;1.20;;
16969;SDS011;8601;48.718;8.992;2022-10-22T06:06:36;1.63;;;1.10;;
16969;SDS011;8601;48.718;8.992;2022-10-22T06:09:06;1.47;;;1.33;;
16969;SDS011;8601;48.718;8.992;2022-10-22T06:11:38;2.43;;;1.40;;
16969;SDS011;8601;48.718;8.992;2022-10-22T06:14:07;1.93;;;1.23;;
16969;SDS011;8601;48.718;8.992;2022-10-22T06:16:35;1.90;;;1.70;;
16969;SDS011;8601;48.718;8.992;2022-10-22T06:19:02;2.13;;;1.43;;
16969;SDS011;8601;48.718;8.992;2022-10-22T06:21:29;4.37;;;1.43;;
16969;SDS011;8601;48.718;8.992;2022-10-22T06:23:57;3.10;;;1.40;;
16969;SDS011;8601;48.718;8.992;2022-10-22T06:26:25;1.40;;;1.30;;
16969;SDS011;8601;48.718;8.992;2022-10-22T06:28:53;2.67;;;1.60;;
16969;SDS011;8601;48.718;8.992;2022-10-22T06:31:22;4.17;;;1.90;;
16969;SDS011;8601;48.718;8.992;2022-10-22T06:33:49;2.07;;;1.53;;
16969;SDS011;8601;48.718;8.992;2022-10-22T06:36:16;2.23;;;1.40;;
16969;SDS011;8601;48.718;8.992;2022-10-22T06:38:44;3.53;;;1.90;;
16969;SDS011;8601;48.718;8.992;2022-10-22T06:41:12;2.13;;;1.60;;
16969;SDS011;8601;48.718;8.992;2022-10-22T06:43:42;1.80;;;1.70;;
16969;SDS011;8601;48.718;8.992;2022-10-22T06:46:11;2.00;;;1.67;;
16969;SDS011;8601;48.718;8.992;2022-10-22T06:48:41;3.77;;;1.50;;
16969;SDS011;8601;48.718;8.992;2022-10-22T06:51:09;1.50;;;1.40;;
16969;SDS011;8601;48.718;8.992;2022-10-22T06:53:37;3.00;;;1.20;;
16969;SDS011;8601;48.718;8.992;2022-10-22T06:56:05;1.47;;;1.37;;
16969;SDS011;8601;48.718;8.992;2022-10-22T06:58:33;1.40;;;1.30;;
16969;SDS011;8601;48.718;8.992;2022-10-22T07:01:01;1.27;;;1.10;;
16969;SDS011;8601;48.718;8.992;2022-10-22T07:03:29;1.30;;;1.20;;
16969;SDS011;8601;48.718;8.992;2022-10-22T07:05:59;1.40;;;1.30;;
16969;SDS011;8601;48.718;8.992;2022-10-22T07:08:27;2.60;;;1.30;;
16969;SDS011;8601;48.718;8.992;2022-10-22T07:10:54;1.53;;;1.10;;
16969;SDS011;8601;48.718;8.992;2022-10-22T07:13:23;3.37;;;1.43;;
16969;SDS011;8601;48.718;8.992;2022-10-22T07:15:52;2.23;;;1.87;;
16969;SDS011;8601;48.718;8.992;2022-10-22T07:18:19;1.60;;;1.50;;
16969;SDS011;8601;48.718;8.992;2022-10-22T07:20:48;1.50;;;1.23;;
16969;SDS011;8601;48.718;8.992;2022-10-22T07:23:17;1.57;;;1.30;;
16969;SDS011;8601;48.718;8.992;2022-10-22T07:25:44;3.23;;;1.70;;
16969;SDS011;8601;48.718;8.992;2022-10-22T07:28:11;1.80;;;1.70;;
16969;SDS011;8601;48.718;8.992;2022-10-22T07:30:38;2.40;;;1.67;;
16969;SDS011;8601;48.718;8.992;2022-10-22T07:33:05;1.50;;;1.40;;
16969;SDS011;8601;48.718;8.992;2022-10-22T07:35:32;2.53;;;1.50;;
16969;SDS011;8601;48.718;8.992;2022-10-22T07:38:01;2.20;;;1.50;;
16969;SDS011;8601;48.718;8.992;2022-10-22T07:40:29;2.90;;;1.57;;
16969;SDS011;8601;48.718;8.992;2022-10-22T07:42:56;2.03;;;1.50;;
16969;SDS011;8601;48.718;8.992;2022-10-22T07:45:23;2.87;;;1.70;;
16969;SDS011;8601;48.718;8.992;2022-10-22T07:47:51;1.87;;;1.77;;
16969;SDS011;8601;48.718;8.992;2022-10-22T07:50:17;2.87;;;1.90;;
16969;SDS011;8601;48.718;8.992;2022-10-22T07:52:44;3.17;;;1.57;;
16969;SDS011;8601;48.718;8.992;2022-10-22T07:55:11;1.97;;;1.70;;
16969;SDS011;8601;48.718;8.992;2022-10-22T07:57:39;1.93;;;1.77;;
16969;SDS011;8601;48.718;8.992;2022-10-22T08:00:07;2.00;;;1.90;;
16969;SDS011;8601;48.718;8.992;2022-10-22T08:02:36;2.83;;;2.10;;
16969;SDS011;8601;48.718;8.992;2022-10-22T08:05:03;2.13;;;1.93;;
16969;SDS011;8601;48.718;8.992;2022-10-22T08:07:31;3.83;;;2.20;;
16969;SDS011;8601;48.718;8.992;2022-10-22T08:09:57;3.20;;;1.87;;
16969;SDS011;8601;48.718;8.992;2022-10-22T08:12:24;2.53;;;2.10;;
16969;SDS011;8601;48.718;8.992;2022-10-22T08:14:54;2.30;;;2.10;;
16969;SDS011;8601;48.718;8.992;2022-10-22T08:17:21;2.37;;;2.10;;
16969;SDS011;8601;48.718;8.992;2022-10-22T08:19:47;3.53;;;2.13;;
16969;SDS011;8601;48.718;8.992;2022-10-22T08:22:14;3.03;;;1.90;;
16969;SDS011;8601;48.718;8.992;2022-10-22T08:24:42;2.90;;;2.00;;
16969;SDS011;8601;48.718;8.992;2022-10-22T08:27:08;2.30;;;2.10;;
16969;SDS011;8601;48.718;8.992;2022-10-22T08:29:35;2.43;;;2.17;;
16969;SDS011;8601;48.718;8.992;2022-10-22T08:32:04;3.30;;;2.10;;
16969;SDS011;8601;48.718;8.992;2022-10-22T08:34:31;2.60;;;2.10;;
16969;SDS011;8601;48.718;8.992;2022-10-22T08:36:58;2.90;;;1.80;;
16969;SDS011;8601;48.718;8.992;2022-10-22T08:39:25;4.77;;;2.43;;
16969;SDS011;8601;48.718;8.992;2022-10-22T08:41:55;2.10;;;1.90;;
16969;SDS011;8601;48.718;8.992;2022-10-22T08:44:34;2.50;;;2.30;;
16969;SDS011;8601;48.718;8.992;2022-10-22T08:47:39;2.10;;;1.80;;
16969;SDS011;8601;48.718;8.992;2022-10-22T08:50:18;2.33;;;2.13;;
16969;SDS011;8601;48.718;8.992;2022-10-22T08:52:52;5.77;;;1.77;;
16969;SDS011;8601;48.718;8.992;2022-10-22T08:55:24;2.40;;;1.90;;
16969;SDS011;8601;48.718;8.992;2022-10-22T08:57:54;1.70;;;1.50;;
16969;SDS011;8601;48.718;8.992;2022-10-22T09:00:28;1.90;;;1.60;;
16969;SDS011;8601;48.718;8.992;2022-10-22T09:03:04;1.60;;;1.50;;
16969;SDS011;8601;48.718;8.992;2022-10-22T09:05:54;1.77;;;1.57;;
16969;SDS011;8601;48.718;8.992;2022-10-22T09:08:27;1.83;;;1.40;;
16969;SDS011;8601;48.718;8.992;2022-10-22T09:10:56;1.53;;;1.23;;
16969;SDS011;8601;48.718;8.992;2022-10-22T09:13:27;2.90;;;1.30;;
16969;SDS011;8601;48.718;8.992;2022-10-22T09:15:55;3.23;;;1.20;;
16969;SDS011;8601;48.718;8.992;2022-10-22T09:18:32;1.67;;;1.40;;
16969;SDS011;8601;48.718;8.992;2022-10-22T09:21:05;1.83;;;1.23;;
16969;SDS011;8601;48.718;8.992;2022-10-22T09:23:47;1.50;;;1.20;;
16969;SDS011;8601;48.718;8.992;2022-10-22T09:26:21;2.17;;;1.30;;
16969;SDS011;8601;48.718;8.992;2022-10-22T09:28:48;3.03;;;1.30;;
16969;SDS011;8601;48.718;8.992;2022-10-22T09:31:16;2.53;;;1.33;;
16969;SDS011;8601;48.718;8.992;2022-10-22T09:33:45;1.10;;;1.00;;
16969;SDS011;8601;48.718;8.992;2022-10-22T09:36:14;3.07;;;1.10;;
16969;SDS011;8601;48.718;8.992;2022-10-22T09:38:45;4.27;;;1.37;;
16969;SDS011;8601;48.718;8.992;2022-10-22T09:41:13;1.20;;;1.10;;
16969;SDS011;8601;48.718;8.992;2022-10-22T09:43:41;5.63;;;2.43;;
16969;SDS011;8601;48.718;8.992;2022-10-22T09:46:13;4.77;;;1.73;;
16969;SDS011;8601;48.718;8.992;2022-10-22T09:48:42;1.30;;;1.17;;
16969;SDS011;8601;48.718;8.992;2022-10-22T09:51:17;1.17;;;1.07;;
16969;SDS011;8601;48.718;8.992;2022-10-22T09:53:46;1.27;;;0.90;;
16969;SDS011;8601;48.718;8.992;2022-10-22T09:56:23;3.13;;;1.50;;
16969;SDS011;8601;48.718;8.992;2022-10-22T09:58:51;1.57;;;1.20;;
16969;SDS011;8601;48.718;8.992;2022-10-22T10:01:21;1.83;;;1.10;;
16969;SDS011;8601;48.718;8.992;2022-10-22T10:03:53;1.97;;;1.17;;
16969;SDS011;8601;48.718;8.992;2022-10-22T10:06:30;1.60;;;1.20;;
16969;SDS011;8601;48.718;8.992;2022-10-22T10:08:58;2.13;;;1.10;;
16969;SDS011;8601;48.718;8.992;2022-10-22T10:11:31;2.03;;;1.00;;
16969;SDS011;8601;48.718;8.992;2022-10-22T10:14:05;1.30;;;1.20;;
16969;SDS011;8601;48.718;8.992;2022-10-22T10:16:43;1.43;;;1.00;;
16969;SDS011;8601;48.718;8.992;2022-10-22T10:19:29;2.07;;;1.23;;
16969;SDS011;8601;48.718;8.992;2022-10-22T10:22:10;4.00;;;1.23;;
16969;SDS011;8601;48.718;8.992;2022-10-22T10:24:56;1.50;;;1.00;;
16969;SDS011;8601;48.718;8.992;2022-10-22T10:27:36;4.77;;;1.10;;
16969;SDS011;8601;48.718;8.992;2022-10-22T10:30:09;1.63;;;1.03;;
16969;SDS011;8601;48.718;8.992;2022-10-22T10:32:49;2.17;;;1.00;;
16969;SDS011;8601;48.718;8.992;2022-10-22T10:35:26;3.83;;;1.53;;
16969;SDS011;8601;48.718;8.992;2022-10-22T10:38:00;3.20;;;1.50;;
16969;SDS011;8601;48.718;8.992;2022-10-22T10:40:38;1.07;;;1.00;;
16969;SDS011;8601;48.718;8.992;2022-10-22T10:43:12;1.10;;;1.00;;
16969;SDS011;8601;48.718;8.992;2022-10-22T10:45:46;3.83;;;1.13;;
16969;SDS011;8601;48.718;8.992;2022-10-22T10:48:27;5.73;;;1.80;;
16969;SDS011;8601;48.718;8.992;2022-10-22T10:51:13;1.87;;;1.20;;
16969;SDS011;8601;48.718;8.992;2022-10-22T10:54:00;3.93;;;2.53;;
16969;SDS011;8601;48.718;8.992;2022-10-22T10:56:38;4.93;;;1.43;;
16969;SDS011;8601;48.718;8.992;2022-10-22T10:59:11;3.03;;;1.10;;
16969;SDS011;8601;48.718;8.992;2022-10-22T11:01:46;1.17;;;0.97;;
16969;SDS011;8601;48.718;8.992;2022-10-22T11:07:21;2.00;;;1.00;;
16969;SDS011;8601;48.718;8.992;2022-10-22T11:09:52;3.40;;;1.10;;
16969;SDS011;8601;48.718;8.992;2022-10-22T11:12:25;2.40;;;1.10;;
16969;SDS011;8601;48.718;8.992;2022-10-22T11:14:57;2.60;;;1.07;;
16969;SDS011;8601;48.718;8.992;2022-10-22T11:17:29;3.10;;;1.13;;
16969;SDS011;8601;48.718;8.992;2022-10-22T11:20:02;2.37;;;1.40;;
16969;SDS011;8601;48.718;8.992;2022-10-22T11:22:34;2.13;;;1.00;;
16969;SDS011;8601;48.718;8.992;2022-10-22T11:25:04;2.20;;;1.20;;
16969;SDS011;8601;48.718;8.992;2022-10-22T11:27:44;3.70;;;1.00;;
16969;SDS011;8601;48.718;8.992;2022-10-22T11:30:17;3.13;;;1.40;;
16969;SDS011;8601;48.718;8.992;2022-10-22T11:32:47;2.20;;;0.90;;
16969;SDS011;8601;48.718;8.992;2022-10-22T11:35:18;4.20;;;1.23;;
16969;SDS011;8601;48.718;8.992;2022-10-22T11:37:50;2.03;;;0.70;;
16969;SDS011;8601;48.718;8.992;2022-10-22T11:40:20;2.63;;;1.23;;
16969;SDS011;8601;48.718;8.992;2022-10-22T11:42:48;3.20;;;1.10;;
16969;SDS011;8601;48.718;8.992;2022-10-22T11:45:28;2.80;;;1.10;;
16969;SDS011;8601;48.718;8.992;2022-10-22T11:47:57;2.17;;;0.97;;
16969;SDS011;8601;48.718;8.992;2022-10-22T11:53:20;3.80;;;0.93;;
16969;SDS011;8601;48.718;8.992;2022-10-22T11:55:55;3.40;;;1.07;;
16969;SDS011;8601;48.718;8.992;2022-10-22T11:58:28;2.13;;;1.10;;
16969;SDS011;8601;48.718;8.992;2022-10-22T12:01:15;2.67;;;1.10;;
16969;SDS011;8601;48.718;8.992;2022-10-22T12:03:47;2.80;;;1.23;;
16969;SDS011;8601;48.718;8.992;2022-10-22T12:06:16;1.77;;;1.00;;
16969;SDS011;8601;48.718;8.992;2022-10-22T12:08:49;4.90;;;1.40;;
16969;SDS011;8601;48.718;8.992;2022-10-22T12:11:22;2.87;;;1.30;;
16969;SDS011;8601;48.718;8.992;2022-10-22T12:13:57;4.73;;;1.00;;
16969;SDS011;8601;48.718;8.992;2022-10-22T12:16:35;2.87;;;1.13;;
16969;SDS011;8601;48.718;8.992;2022-10-22T12:19:04;2.03;;;1.20;;
16969;SDS011;8601;48.718;8.992;2022-10-22T12:21:39;3.63;;;0.90;;
16969;SDS011;8601;48.718;8.992;2022-10-22T12:24:10;1.63;;;0.77;;
16969;SDS011;8601;48.718;8.992;2022-10-22T12:26:40;3.40;;;1.13;;
16969;SDS011;8601;48.718;8.992;2022-10-22T12:29:09;2.87;;;1.10;;
16969;SDS011;8601;48.718;8.992;2022-10-22T12:31:38;4.40;;;1.10;;
16969;SDS011;8601;48.718;8.992;2022-10-22T12:34:06;2.10;;;0.73;;
16969;SDS011;8601;48.718;8.992;2022-10-22T12:36:39;2.23;;;0.97;;
16969;SDS011;8601;48.718;8.992;2022-10-22T12:39:08;2.77;;;1.40;;
16969;SDS011;8601;48.718;8.992;2022-10-22T12:41:39;3.27;;;1.10;;
16969;SDS011;8601;48.718;8.992;2022-10-22T12:44:09;2.83;;;1.03;;
16969;SDS011;8601;48.718;8.992;2022-10-22T12:46:37;2.60;;;0.93;;
16969;SDS011;8601;48.718;8.992;2022-10-22T12:49:05;3.10;;;1.10;;
16969;SDS011;8601;48.718;8.992;2022-10-22T12:51:34;1.87;;;0.97;;
16969;SDS011;8601;48.718;8.992;2022-10-22T12:54:02;2.03;;;1.10;;
16969;SDS011;8601;48.718;8.992;2022-10-22T12:56:35;3.17;;;1.17;;
16969;SDS011;8601;48.718;8.992;2022-10-22T12:59:04;3.13;;;1.20;;
16969;SDS011;8601;48.718;8.992;2022-10-22T13:01:37;1.67;;;1.03;;
16969;SDS011;8601;48.718;8.992;2022-10-22T13:04:16;4.33;;;1.10;;
16969;SDS011;8601;48.718;8.992;2022-10-22T13:06:45;1.80;;;1.00;;
16969;SDS011;8601;48.718;8.992;2022-10-22T13:09:14;2.63;;;1.00;;
16969;SDS011;8601;48.718;8.992;2022-10-22T13:11:49;3.37;;;1.20;;
16969;SDS011;8601;48.718;8.992;2022-10-22T13:14:20;4.07;;;1.27;;
16969;SDS011;8601;48.718;8.992;2022-10-22T13:17:03;4.03;;;1.43;;
16969;SDS011;8601;48.718;8.992;2022-10-22T13:19:35;3.63;;;1.30;;
16969;SDS011;8601;48.718;8.992;2022-10-22T13:22:27;2.50;;;0.90;;
16969;SDS011;8601;48.718;8.992;2022-10-22T13:24:56;4.27;;;1.33;;
16969;SDS011;8601;48.718;8.992;2022-10-22T13:27:27;4.63;;;1.53;;
16969;SDS011;8601;48.718;8.992;2022-10-22T13:29:59;1.73;;;1.00;;
16969;SDS011;8601;48.718;8.992;2022-10-22T13:32:29;3.80;;;1.33;;
16969;SDS011;8601;48.718;8.992;2022-10-22T13:34:58;2.47;;;1.00;;
16969;SDS011;8601;48.718;8.992;2022-10-22T13:37:27;2.70;;;1.37;;
16969;SDS011;8601;48.718;8.992;2022-10-22T13:39:56;2.10;;;1.10;;
16969;SDS011;8601;48.718;8.992;2022-10-22T13:42:23;3.40;;;1.67;;
16969;SDS011;8601;48.718;8.992;2022-10-22T13:44:51;4.00;;;1.00;;
16969;SDS011;8601;48.718;8.992;2022-10-22T13:47:23;2.83;;;1.07;;
16969;SDS011;8601;48.718;8.992;2022-10-22T13:49:52;4.00;;;1.33;;
16969;SDS011;8601;48.718;8.992;2022-10-22T13:52:26;2.30;;;1.30;;
16969;SDS011;8601;48.718;8.992;2022-10-22T13:54:56;2.70;;;1.63;;
16969;SDS011;8601;48.718;8.992;2022-10-22T13:57:23;2.77;;;1.00;;
16969;SDS011;8601;48.718;8.992;2022-10-22T13:59:57;3.20;;;2.10;;
16969;SDS011;8601;48.718;8.992;2022-10-22T14:02:24;4.03;;;2.70;;
16969;SDS011;8601;48.718;8.992;2022-10-22T14:04:52;3.03;;;1.20;;
16969;SDS011;8601;48.718;8.992;2022-10-22T14:07:19;2.77;;;1.20;;
16969;SDS011;8601;48.718;8.992;2022-10-22T14:09:46;2.33;;;1.10;;
16969;SDS011;8601;48.718;8.992;2022-10-22T14:12:14;4.50;;;1.00;;
16969;SDS011;8601;48.718;8.992;2022-10-22T14:14:41;4.03;;;1.53;;
16969;SDS011;8601;48.718;8.992;2022-10-22T14:17:12;2.70;;;1.03;;
16969;SDS011;8601;48.718;8.992;2022-10-22T14:19:41;4.23;;;1.77;;
16969;SDS011;8601;48.718;8.992;2022-10-22T14:22:12;1.40;;;1.00;;
16969;SDS011;8601;48.718;8.992;2022-10-22T14:24:39;2.60;;;1.13;;
16969;SDS011;8601;48.718;8.992;2022-10-22T14:27:07;2.40;;;1.20;;
16969;SDS011;8601;48.718;8.992;2022-10-22T14:29:36;3.47;;;1.20;;
16969;SDS011;8601;48.718;8.992;2022-10-22T14:32:05;3.17;;;1.20;;
16969;SDS011;8601;48.718;8.992;2022-10-22T14:34:39;1.90;;;1.00;;
16969;SDS011;8601;48.718;8.992;2022-10-22T14:37:11;1.67;;;0.90;;
16969;SDS011;8601;48.718;8.992;2022-10-22T14:39:43;2.80;;;1.13;;
16969;SDS011;8601;48.718;8.992;2022-10-22T14:42:17;1.73;;;1.10;;
16969;SDS011;8601;48.718;8.992;2022-10-22T14:44:44;4.03;;;1.10;;
16969;SDS011;8601;48.718;8.992;2022-10-22T14:47:13;3.33;;;1.10;;
16969;SDS011;8601;48.718;8.992;2022-10-22T14:49:41;2.20;;;0.90;;
16969;SDS011;8601;48.718;8.992;2022-10-22T14:52:08;3.87;;;1.43;;
16969;SDS011;8601;48.718;8.992;2022-10-22T14:54:36;3.23;;;1.10;;
16969;SDS011;8601;48.718;8.992;2022-10-22T14:57:03;4.73;;;1.30;;
16969;SDS011;8601;48.718;8.992;2022-10-22T14:59:32;4.07;;;1.30;;
16969;SDS011;8601;48.718;8.992;2022-10-22T15:02:00;2.60;;;1.03;;
16969;SDS011;8601;48.718;8.992;2022-10-22T15:04:26;5.47;;;1.20;;
16969;SDS011;8601;48.718;8.992;2022-10-22T15:06:55;4.63;;;1.10;;
16969;SDS011;8601;48.718;8.992;2022-10-22T15:09:24;4.20;;;1.17;;
16969;SDS011;8601;48.718;8.992;2022-10-22T15:11:51;2.87;;;1.13;;
16969;SDS011;8601;48.718;8.992;2022-10-22T15:14:17;6.20;;;1.30;;
16969;SDS011;8601;48.718;8.992;2022-10-22T15:16:44;4.80;;;1.37;;
16969;SDS011;8601;48.718;8.992;2022-10-22T15:19:11;2.33;;;1.00;;
16969;SDS011;8601;48.718;8.992;2022-10-22T15:21:39;3.23;;;0.97;;
16969;SDS011;8601;48.718;8.992;2022-10-22T15:24:08;1.73;;;1.20;;
16969;SDS011;8601;48.718;8.992;2022-10-22T15:26:34;2.93;;;1.30;;